Time;durP1;ratioP1;P1;durP2;ratioP2;P2;SDS_P1;SDS_P2;PMS_P1;PMS_P2;Temp;Humidity;BMP_temperature;BMP_pressure;BME280_temperature;BME280_humidity;BME280_pressure;Samples;Min_cycle;Max_cycle;Signal;HPM_P1;HPM_P2
2024/01/30 00:01:20;;;;;;;12.57;8.80;;;-0.70;99.90;;;;;;5010803;28;20706;-63
2024/01/30 00:03:50;;;;;;;9.52;8.65;;;-0.70;99.90;;;;;;5011224;28;20286;-63
2024/01/30 00:06:20;;;;;;;9.82;7.90;;;-0.70;99.90;;;;;;5011116;28;20698;-62
2024/01/30 00:08:48;;;;;;;12.95;9.50;;;-0.70;99.90;;;;;;5010962;28;20207;-63
2024/01/30 00:11:15;;;;;;;8.10;7.30;;;-0.70;99.90;;;;;;5011069;28;20366;-63
2024/01/30 00:13:42;;;;;;;7.35;6.65;;;-0.70;99.90;;;;;;5015169;28;20295;-63
2024/01/30 00:16:09;;;;;;;9.52;8.48;;;-0.70;99.90;;;;;;5014438;28;20294;-63
2024/01/30 00:18:37;;;;;;;9.23;8.35;;;-0.70;99.90;;;;;;5015052;28;20291;-63
2024/01/30 00:21:05;;;;;;;9.02;7.40;;;-0.70;99.90;;;;;;5014690;28;20207;-63
2024/01/30 00:23:32;;;;;;;9.60;8.70;;;-0.70;99.90;;;;;;5014664;28;20300;-63
2024/01/30 00:25:59;;;;;;;8.90;8.00;;;-0.70;99.90;;;;;;5015032;28;20204;-63
2024/01/30 00:28:26;;;;;;;10.18;8.65;;;-0.70;99.90;;;;;;5014748;28;20262;-63
2024/01/30 00:30:53;;;;;;;15.13;9.13;;;-0.70;99.90;;;;;;5014300;28;20318;-63
2024/01/30 00:33:21;;;;;;;9.60;8.68;;;-0.70;99.90;;;;;;5014359;28;20291;-63
2024/01/30 00:35:48;;;;;;;9.00;8.18;;;-0.70;99.90;;;;;;5014703;28;20223;-63
2024/01/30 00:38:16;;;;;;;10.10;8.75;;;-0.70;99.90;;;;;;5014284;28;20212;-63
2024/01/30 00:40:43;;;;;;;9.27;7.53;;;-0.70;99.90;;;;;;5014581;28;20310;-63
2024/01/30 00:43:10;;;;;;;10.15;9.15;;;-0.70;99.90;;;;;;5014347;28;20777;-63
2024/01/30 00:45:37;;;;;;;10.23;7.82;;;-0.80;99.90;;;;;;5014617;28;20286;-63
2024/01/30 00:48:05;;;;;;;7.85;7.25;;;-0.80;99.90;;;;;;5014272;28;20294;-64
2024/01/30 00:50:31;;;;;;;10.35;9.05;;;-0.70;99.90;;;;;;5014086;28;20710;-63
2024/01/30 00:52:58;;;;;;;10.93;10.07;;;-0.80;99.90;;;;;;5014457;28;20206;-63
2024/01/30 00:55:26;;;;;;;9.70;8.75;;;-0.80;99.90;;;;;;5014494;28;20290;-63
2024/01/30 00:57:53;;;;;;;8.85;8.10;;;-0.80;99.90;;;;;;5013848;28;20294;-63
2024/01/30 01:00:20;;;;;;;10.48;9.50;;;-0.80;99.90;;;;;;5013736;28;20310;-63
2024/01/30 01:02:47;;;;;;;9.45;8.10;;;-0.80;99.90;;;;;;5013754;28;20647;-63
2024/01/30 01:05:14;;;;;;;11.57;8.48;;;-0.80;99.90;;;;;;5013671;28;20211;-63
2024/01/30 01:07:42;;;;;;;11.90;10.63;;;-0.80;99.90;;;;;;5013890;28;20295;-64
2024/01/30 01:10:11;;;;;;;11.88;10.73;;;-0.80;99.90;;;;;;5013909;28;20239;-64
2024/01/30 01:12:39;;;;;;;10.52;9.43;;;-0.80;99.90;;;;;;5013793;28;20294;-63
2024/01/30 01:15:09;;;;;;;13.95;10.30;;;-0.80;99.90;;;;;;5013894;28;20291;-64
2024/01/30 01:17:36;;;;;;;9.43;8.63;;;-0.80;99.90;;;;;;5013548;28;20204;-63
2024/01/30 01:20:05;;;;;;;10.48;9.43;;;-0.80;99.90;;;;;;5014143;28;20289;-64
2024/01/30 01:22:32;;;;;;;11.70;10.25;;;-0.80;99.90;;;;;;5013832;28;20200;-64
2024/01/30 01:24:59;;;;;;;10.23;9.23;;;-0.80;99.90;;;;;;5012935;28;20260;-63
2024/01/30 01:27:26;;;;;;;10.30;9.30;;;-0.80;99.90;;;;;;5013372;28;20748;-64
2024/01/30 01:29:54;;;;;;;12.38;10.48;;;-0.80;99.90;;;;;;5013318;28;20318;-63
2024/01/30 01:32:21;;;;;;;14.00;12.52;;;-0.80;99.90;;;;;;5005404;28;20210;-64
2024/01/30 01:34:48;;;;;;;13.23;11.88;;;-0.80;99.90;;;;;;5013495;28;20295;-63
2024/01/30 01:37:15;;;;;;;12.38;10.55;;;-0.80;99.90;;;;;;5013690;28;20655;-64
2024/01/30 01:39:42;;;;;;;10.20;9.40;;;-0.80;99.90;;;;;;5012976;28;20254;-64
2024/01/30 01:42:09;;;;;;;10.43;9.57;;;-0.80;99.90;;;;;;5013335;28;20250;-63
2024/01/30 01:44:36;;;;;;;12.48;10.25;;;-0.80;99.90;;;;;;5013352;28;20323;-64
2024/01/30 01:47:04;;;;;;;9.52;8.63;;;-0.80;99.90;;;;;;5013117;28;20219;-64
2024/01/30 01:49:31;;;;;;;11.32;10.20;;;-0.80;99.90;;;;;;5012382;28;20247;-64
2024/01/30 01:51:59;;;;;;;12.77;10.57;;;-0.80;99.90;;;;;;5011403;28;20295;-63
2024/01/30 01:54:27;;;;;;;13.48;12.13;;;-0.80;99.90;;;;;;5013674;28;20294;-64
2024/01/30 01:56:54;;;;;;;10.18;9.15;;;-0.80;99.90;;;;;;5013676;28;20218;-64
2024/01/30 01:59:22;;;;;;;10.23;9.10;;;-0.80;99.90;;;;;;5013342;28;20311;-64
2024/01/30 02:01:49;;;;;;;12.00;10.65;;;-0.90;99.90;;;;;;5013402;28;20294;-64
2024/01/30 02:04:18;;;;;;;13.55;10.70;;;-0.90;99.90;;;;;;5013500;28;20232;-64
2024/01/30 02:06:45;;;;;;;11.45;10.30;;;-0.80;99.90;;;;;;5013487;28;20297;-64
2024/01/30 02:09:12;;;;;;;12.27;11.10;;;-0.90;99.90;;;;;;5013112;28;20325;-64
2024/01/30 02:11:38;;;;;;;12.45;10.73;;;-0.90;99.90;;;;;;5013035;28;20216;-64
2024/01/30 02:14:06;;;;;;;14.57;13.27;;;-0.90;99.90;;;;;;5013023;28;20682;-63
2024/01/30 02:16:33;;;;;;;12.55;11.45;;;-0.90;99.90;;;;;;5013095;28;20298;-64
2024/01/30 02:18:59;;;;;;;12.73;11.52;;;-0.90;99.90;;;;;;5012837;28;20318;-64
2024/01/30 02:21:28;;;;;;;12.60;11.40;;;-0.90;99.90;;;;;;5012939;28;20214;-63
2024/01/30 02:23:56;;;;;;;14.18;11.50;;;-0.90;99.90;;;;;;5012666;28;20769;-64
2024/01/30 02:26:23;;;;;;;11.90;10.68;;;-0.90;99.90;;;;;;5012913;28;20670;-64
2024/01/30 02:28:49;;;;;;;11.40;10.40;;;-0.90;99.90;;;;;;5012990;28;20295;-63
2024/01/30 02:31:16;;;;;;;14.48;12.05;;;-0.90;99.90;;;;;;5012835;28;20303;-64
2024/01/30 02:33:43;;;;;;;13.80;10.63;;;-0.90;99.90;;;;;;5012800;28;20308;-63
2024/01/30 02:36:10;;;;;;;11.13;10.20;;;-0.90;99.90;;;;;;5011641;28;20675;-64
2024/01/30 02:38:38;;;;;;;11.40;10.40;;;-0.90;99.90;;;;;;5012581;28;20302;-64
2024/01/30 02:41:05;;;;;;;14.27;11.00;;;-0.90;99.90;;;;;;5012471;28;20298;-64
2024/01/30 02:43:32;;;;;;;12.70;10.15;;;-0.90;99.90;;;;;;5012901;28;20314;-64
2024/01/30 02:46:00;;;;;;;16.63;12.95;;;-0.90;99.90;;;;;;5011062;28;20298;-64
2024/01/30 02:48:27;;;;;;;12.23;10.50;;;-0.90;99.90;;;;;;5012412;28;20211;-64
2024/01/30 02:50:54;;;;;;;12.30;10.70;;;-0.90;99.90;;;;;;5011794;28;20632;-64
2024/01/30 02:53:21;;;;;;;16.90;12.38;;;-0.90;99.90;;;;;;5012463;28;20294;-64
2024/01/30 02:55:49;;;;;;;10.73;9.77;;;-0.90;99.90;;;;;;5012168;28;20294;-64
2024/01/30 02:58:16;;;;;;;11.30;10.20;;;-0.90;99.90;;;;;;5012615;28;20821;-64
2024/01/30 03:00:43;;;;;;;11.05;10.05;;;-0.90;99.90;;;;;;5012116;28;20315;-63
2024/01/30 03:03:09;;;;;;;12.43;10.32;;;-0.90;99.90;;;;;;5011747;28;20218;-65
2024/01/30 03:05:36;;;;;;;10.95;9.90;;;-1.00;99.90;;;;;;5012074;28;20672;-65
2024/01/30 03:08:05;;;;;;;10.38;9.18;;;-1.00;99.90;;;;;;5012171;28;20307;-64
2024/01/30 03:10:31;;;;;;;11.10;10.00;;;-1.00;99.90;;;;;;5011852;28;20654;-64
2024/01/30 03:13:00;;;;;;;14.15;10.57;;;-1.00;99.90;;;;;;5012241;28;20304;-63
2024/01/30 03:15:26;;;;;;;9.77;8.88;;;-1.00;99.90;;;;;;5012291;28;20294;-64
2024/01/30 03:17:54;;;;;;;9.80;8.80;;;-1.00;99.90;;;;;;5012174;28;20318;-63
2024/01/30 03:20:21;;;;;;;12.55;8.32;;;-1.00;99.90;;;;;;5011749;28;20238;-63
2024/01/30 03:22:48;;;;;;;9.50;8.45;;;-1.00;99.90;;;;;;5012022;28;20299;-64
2024/01/30 03:25:15;;;;;;;10.52;9.73;;;-1.10;99.90;;;;;;5011912;28;20318;-64
2024/01/30 03:27:42;;;;;;;9.60;8.57;;;-1.10;99.90;;;;;;5012186;28;20552;-64
2024/01/30 03:30:11;;;;;;;10.10;9.10;;;-1.00;99.90;;;;;;5011693;28;20232;-64
2024/01/30 03:32:38;;;;;;;13.15;11.10;;;-1.10;99.90;;;;;;5011488;28;20291;-64
2024/01/30 03:35:05;;;;;;;11.35;10.30;;;-1.10;99.90;;;;;;5011715;28;20294;-64
2024/01/30 03:37:32;;;;;;;13.15;10.07;;;-1.10;99.90;;;;;;5011988;28;20214;-64
2024/01/30 03:39:59;;;;;;;11.20;10.02;;;-1.10;99.90;;;;;;5011735;28;20227;-64
2024/01/30 03:42:26;;;;;;;12.45;11.00;;;-1.10;99.90;;;;;;5011885;28;20254;-64
2024/01/30 03:44:53;;;;;;;11.88;10.82;;;-1.10;99.90;;;;;;5011757;28;20330;-64
2024/01/30 03:47:22;;;;;;;9.93;8.93;;;-1.10;99.90;;;;;;5011387;28;20744;-64
2024/01/30 03:49:49;;;;;;;11.02;9.95;;;-1.10;99.90;;;;;;5011393;28;20234;-64
2024/01/30 03:52:16;;;;;;;10.93;9.85;;;-1.10;99.90;;;;;;5011781;28;20302;-64
2024/01/30 03:54:42;;;;;;;13.85;9.57;;;-1.10;99.90;;;;;;5011793;28;20378;-64
2024/01/30 03:57:09;;;;;;;10.90;9.82;;;-1.10;99.90;;;;;;5011755;28;20208;-63
2024/01/30 03:59:36;;;;;;;10.52;9.43;;;-1.10;99.90;;;;;;5011545;28;20315;-63
2024/01/30 04:02:04;;;;;;;11.35;7.68;;;-1.10;99.90;;;;;;5011540;28;20327;-64
2024/01/30 04:04:32;;;;;;;10.07;9.18;;;-1.20;99.90;;;;;;5011446;28;20340;-64
2024/01/30 04:06:59;;;;;;;13.43;9.23;;;-1.20;99.90;;;;;;5011626;28;20302;-63
2024/01/30 04:09:26;;;;;;;12.55;9.50;;;-1.20;99.90;;;;;;5011441;28;20326;-64
2024/01/30 04:11:53;;;;;;;10.70;9.48;;;-1.20;99.90;;;;;;5011357;28;20262;-63
2024/01/30 04:14:20;;;;;;;11.63;8.95;;;-1.20;99.90;;;;;;5011620;28;20262;-63
2024/01/30 04:16:46;;;;;;;10.50;9.45;;;-1.20;99.90;;;;;;5011433;28;20298;-64
2024/01/30 04:19:13;;;;;;;14.25;8.18;;;-1.20;99.90;;;;;;5011578;28;20311;-63
2024/01/30 04:21:42;;;;;;;9.02;7.80;;;-1.30;99.90;;;;;;5011516;28;20619;-64
2024/01/30 04:24:09;;;;;;;9.18;7.70;;;-1.20;99.90;;;;;;5011641;28;20228;-63
2024/01/30 04:26:36;;;;;;;8.90;8.10;;;-1.30;99.90;;;;;;5011154;28;20311;-64
2024/01/30 04:29:03;;;;;;;9.73;8.82;;;-1.30;99.90;;;;;;5011466;28;20232;-63
2024/01/30 04:31:30;;;;;;;8.98;7.95;;;-1.30;99.90;;;;;;5011086;28;20231;-63
2024/01/30 04:33:57;;;;;;;8.85;7.97;;;-1.30;99.90;;;;;;5011252;28;20240;-63
2024/01/30 04:36:24;;;;;;;8.65;7.75;;;-1.30;99.90;;;;;;5011514;28;20207;-62
2024/01/30 04:38:52;;;;;;;9.45;8.60;;;-1.30;99.90;;;;;;5011408;28;20669;-63
2024/01/30 04:41:19;;;;;;;8.80;8.07;;;-1.30;99.90;;;;;;5011278;28;20296;-64
2024/01/30 04:43:46;;;;;;;9.85;8.90;;;-1.30;99.90;;;;;;5011303;28;20315;-64
2024/01/30 04:46:13;;;;;;;9.10;8.30;;;-1.30;99.90;;;;;;5011089;28;20227;-64
2024/01/30 04:48:39;;;;;;;10.23;9.23;;;-1.30;99.90;;;;;;5011135;28;20203;-63
2024/01/30 04:51:06;;;;;;;10.70;9.60;;;-1.30;99.90;;;;;;5011151;28;20299;-63
2024/01/30 04:53:33;;;;;;;10.18;8.77;;;-1.40;99.90;;;;;;5011190;28;20212;-64
2024/01/30 04:56:01;;;;;;;8.85;8.15;;;-1.40;99.90;;;;;;5010315;28;20211;-64
2024/01/30 04:58:28;;;;;;;9.60;8.70;;;-1.40;99.90;;;;;;5011231;28;20307;-64
2024/01/30 05:00:55;;;;;;;8.05;7.43;;;-1.40;99.90;;;;;;5014237;28;20338;-64
2024/01/30 05:03:22;;;;;;;10.85;9.90;;;-1.40;99.90;;;;;;5014489;28;20214;-64
2024/01/30 05:05:50;;;;;;;10.02;9.07;;;-1.40;99.90;;;;;;5014561;28;20263;-64
2024/01/30 05:08:16;;;;;;;10.98;8.93;;;-1.40;99.90;;;;;;5014626;28;20234;-63
2024/01/30 05:10:43;;;;;;;11.60;8.43;;;-1.40;99.90;;;;;;5014137;28;20239;-63
2024/01/30 05:13:13;;;;;;;10.27;8.18;;;-1.50;99.90;;;;;;5014348;28;20204;-64
2024/01/30 05:15:40;;;;;;;12.43;8.73;;;-1.50;99.90;;;;;;5014618;28;20214;-63
2024/01/30 05:18:07;;;;;;;10.20;9.30;;;-1.50;99.90;;;;;;5014415;28;20298;-63
2024/01/30 05:20:34;;;;;;;9.45;8.45;;;-1.50;99.90;;;;;;5014061;28;20228;-63
2024/01/30 05:23:01;;;;;;;8.85;7.45;;;-1.50;99.90;;;;;;5014382;28;20303;-63
2024/01/30 05:25:28;;;;;;;8.07;7.10;;;-1.50;99.90;;;;;;5014170;28;20311;-63
2024/01/30 05:27:55;;;;;;;11.82;8.70;;;-1.50;99.90;;;;;;5013408;28;20242;-63
2024/01/30 05:30:23;;;;;;;10.20;8.43;;;-1.50;99.90;;;;;;5013828;28;20316;-64
2024/01/30 05:32:50;;;;;;;11.27;9.20;;;-1.50;99.90;;;;;;5013011;28;20247;-63
2024/01/30 05:35:17;;;;;;;13.70;10.88;;;-1.50;99.90;;;;;;5013257;28;20222;-63
2024/01/30 05:37:44;;;;;;;10.60;9.48;;;-1.50;99.90;;;;;;5013377;28;20214;-62
2024/01/30 05:40:11;;;;;;;10.25;9.35;;;-1.50;99.90;;;;;;5013195;28;20314;-64
2024/01/30 05:42:38;;;;;;;9.93;9.02;;;-1.60;99.90;;;;;;5013137;28;20327;-63
2024/01/30 05:45:06;;;;;;;9.82;8.82;;;-1.50;99.90;;;;;;5013236;28;20318;-64
2024/01/30 05:47:34;;;;;;;10.05;9.15;;;-1.60;99.90;;;;;;5013792;28;20303;-63
2024/01/30 05:50:01;;;;;;;9.88;8.90;;;-1.50;99.90;;;;;;5013676;28;20228;-63
2024/01/30 05:52:28;;;;;;;9.70;8.80;;;-1.50;99.90;;;;;;5024343;28;20637;-63
2024/01/30 05:54:55;;;;;;;9.65;8.70;;;-1.50;99.90;;;;;;5033356;28;20290;-63
2024/01/30 05:57:21;;;;;;;8.77;7.97;;;-1.60;99.90;;;;;;5033319;28;20302;-64
2024/01/30 05:59:48;;;;;;;10.20;8.90;;;-1.60;99.90;;;;;;5033337;28;20668;-63
2024/01/30 06:02:15;;;;;;;11.13;9.90;;;-1.60;99.90;;;;;;5032894;28;20213;-64
2024/01/30 06:04:44;;;;;;;15.68;10.88;;;-1.50;99.90;;;;;;5033202;28;20222;-64
2024/01/30 06:07:11;;;;;;;11.23;10.13;;;-1.50;99.90;;;;;;5033274;28;20211;-64
2024/01/30 06:09:38;;;;;;;10.88;9.75;;;-1.60;99.90;;;;;;5047085;23;20331;-62
2024/01/30 06:12:06;;;;;;;14.13;11.45;;;-1.50;99.90;;;;;;5012529;28;20254;-62
2024/01/30 06:14:33;;;;;;;12.23;10.40;;;-1.60;99.90;;;;;;5013351;28;20282;-62
2024/01/30 06:17:00;;;;;;;11.30;10.10;;;-1.60;99.90;;;;;;5008585;28;20210;-62
2024/01/30 06:19:27;;;;;;;11.95;10.57;;;-1.60;99.90;;;;;;5012472;28;20210;-62
2024/01/30 06:21:55;;;;;;;11.65;10.45;;;-1.60;99.90;;;;;;5011774;28;20650;-62
2024/01/30 06:24:22;;;;;;;9.95;9.18;;;-1.60;99.90;;;;;;5012885;28;20272;-62
2024/01/30 06:26:49;;;;;;;14.20;12.80;;;-1.60;99.90;;;;;;5013135;28;20291;-62
2024/01/30 06:29:16;;;;;;;13.30;11.13;;;-1.60;99.90;;;;;;5003899;28;20207;-62
2024/01/30 06:31:43;;;;;;;10.90;9.90;;;-1.60;99.90;;;;;;5003296;28;20672;-62
2024/01/30 06:34:11;;;;;;;12.98;11.10;;;-1.60;99.90;;;;;;5010791;28;20286;-62
2024/01/30 06:36:38;;;;;;;11.73;10.65;;;-1.60;99.90;;;;;;5013214;28;20204;-62
2024/01/30 06:39:07;;;;;;;9.95;8.95;;;-1.60;99.90;;;;;;5013329;28;20203;-62
2024/01/30 06:41:34;;;;;;;12.88;11.20;;;-1.70;99.90;;;;;;5013287;28;20318;-62
2024/01/30 06:44:03;;;;;;;11.23;10.07;;;-1.70;99.90;;;;;;5013232;28;20299;-63
2024/01/30 06:46:30;;;;;;;10.82;9.80;;;-1.70;99.90;;;;;;5012880;28;20234;-62
2024/01/30 06:48:57;;;;;;;11.60;9.75;;;-1.70;99.90;;;;;;5012830;28;20585;-62
2024/01/30 06:51:24;;;;;;;10.27;9.27;;;-1.60;99.90;;;;;;5012950;28;20310;-62
2024/01/30 06:53:51;;;;;;;11.77;10.23;;;-1.60;99.90;;;;;;5013171;28;20213;-62
2024/01/30 06:56:20;;;;;;;15.70;11.85;;;-1.60;99.90;;;;;;5013053;28;20204;-62
2024/01/30 06:58:48;;;;;;;10.52;9.43;;;-1.60;99.90;;;;;;5012930;28;20207;-62
2024/01/30 07:01:15;;;;;;;11.75;10.63;;;-1.70;99.90;;;;;;5012656;28;20227;-62
2024/01/30 07:03:42;;;;;;;11.35;10.25;;;-1.60;99.90;;;;;;5012943;28;20298;-62
2024/01/30 07:06:10;;;;;;;10.00;9.18;;;-1.60;99.90;;;;;;5013057;28;20720;-62
2024/01/30 07:08:38;;;;;;;13.07;12.02;;;-1.60;99.90;;;;;;5012794;28;20207;-62
2024/01/30 07:11:06;;;;;;;11.68;10.65;;;-1.60;99.90;;;;;;5012311;28;20695;-62
2024/01/30 07:13:35;;;;;;;12.57;10.40;;;-1.60;99.90;;;;;;5012682;28;20203;-62
2024/01/30 07:16:02;;;;;;;11.55;10.43;;;-1.70;99.90;;;;;;5012589;28;20294;-62
2024/01/30 07:18:28;;;;;;;11.88;10.57;;;-1.70;99.90;;;;;;5012953;28;20303;-62
2024/01/30 07:20:55;;;;;;;10.43;9.40;;;-1.70;99.90;;;;;;5012538;28;20269;-62
2024/01/30 07:23:22;;;;;;;11.48;10.43;;;-1.60;99.90;;;;;;5012498;28;20294;-62
2024/01/30 07:25:49;;;;;;;11.48;10.27;;;-1.70;99.90;;;;;;5012514;28;20282;-62
2024/01/30 07:28:17;;;;;;;12.32;11.13;;;-1.60;99.90;;;;;;5012542;28;20739;-62
2024/01/30 07:30:47;;;;;;;11.90;10.45;;;-1.60;99.90;;;;;;5012335;28;20722;-62
2024/01/30 07:33:14;;;;;;;15.57;10.90;;;-1.60;99.90;;;;;;5012865;28;20207;-62
2024/01/30 07:35:41;;;;;;;13.25;10.82;;;-1.60;99.90;;;;;;5012417;28;20724;-62
2024/01/30 07:38:08;;;;;;;12.98;10.77;;;-1.50;99.90;;;;;;5012676;28;20290;-62
2024/01/30 07:40:34;;;;;;;13.25;10.90;;;-1.50;99.90;;;;;;5012290;28;20314;-62
2024/01/30 07:43:03;;;;;;;11.93;10.95;;;-1.50;99.90;;;;;;5012493;28;20298;-62
2024/01/30 07:45:32;;;;;;;12.45;11.15;;;-1.50;99.90;;;;;;5012661;28;20285;-62
2024/01/30 07:48:00;;;;;;;14.63;10.30;;;-1.40;99.90;;;;;;5009321;28;20203;-62
2024/01/30 07:50:27;;;;;;;11.63;9.82;;;-1.40;99.90;;;;;;5004063;28;20227;-62
2024/01/30 07:52:54;;;;;;;11.60;10.60;;;-1.30;99.90;;;;;;5011934;28;20220;-62
2024/01/30 07:55:24;;;;;;;13.70;12.40;;;-1.20;99.90;;;;;;5001417;28;20652;-62
2024/01/30 07:57:53;;;;;;;13.18;11.52;;;-1.20;99.90;;;;;;5009822;28;20674;-63
2024/01/30 08:00:20;;;;;;;14.10;12.60;;;-1.20;99.90;;;;;;5007184;28;20245;-63
2024/01/30 08:02:47;;;;;;;15.60;12.63;;;-1.10;99.90;;;;;;5008831;28;20218;-62
2024/01/30 08:05:16;;;;;;;12.10;10.88;;;-1.10;99.90;;;;;;5006923;28;20671;-62
2024/01/30 08:07:42;;;;;;;12.30;10.75;;;-1.00;99.90;;;;;;5009428;28;20212;-62
2024/01/30 08:10:11;;;;;;;12.15;11.05;;;-1.00;99.90;;;;;;5004622;28;20249;-62
2024/01/30 08:12:38;;;;;;;10.85;9.85;;;-0.90;99.90;;;;;;5007275;28;20286;-62
2024/01/30 08:15:06;;;;;;;11.00;9.98;;;-0.80;99.90;;;;;;5003646;28;20658;-62
2024/01/30 08:17:33;;;;;;;12.07;10.50;;;-0.80;99.90;;;;;;5006007;28;20656;-62
2024/01/30 08:20:00;;;;;;;14.57;13.00;;;-0.70;99.90;;;;;;5011573;28;20234;-62
2024/01/30 08:22:28;;;;;;;12.55;10.52;;;-0.60;99.90;;;;;;5005238;28;20651;-62
2024/01/30 08:24:55;;;;;;;11.25;10.25;;;-0.60;99.90;;;;;;5011576;28;20738;-62
2024/01/30 08:27:22;;;;;;;11.57;10.40;;;-0.50;99.90;;;;;;5008009;28;20224;-62
2024/01/30 08:29:50;;;;;;;12.00;11.00;;;-0.40;99.90;;;;;;5000554;28;20675;-62
2024/01/30 08:32:16;;;;;;;13.07;11.50;;;-0.40;99.90;;;;;;5010368;28;20599;-62
2024/01/30 08:34:43;;;;;;;13.55;12.20;;;-0.30;99.90;;;;;;5011443;28;20205;-62
2024/01/30 08:37:10;;;;;;;14.63;13.13;;;-0.20;99.90;;;;;;5006892;28;20228;-62
2024/01/30 08:39:38;;;;;;;12.52;11.38;;;-0.20;99.90;;;;;;5003318;28;20314;-63
2024/01/30 08:42:06;;;;;;;12.98;11.68;;;-0.10;99.90;;;;;;5006985;28;20211;-62
2024/01/30 08:44:34;;;;;;;16.50;14.10;;;0.00;99.90;;;;;;5003445;28;20209;-62
2024/01/30 08:47:01;;;;;;;18.08;15.70;;;0.00;99.90;;;;;;5012741;28;20251;-62
2024/01/30 08:49:28;;;;;;;23.08;17.13;;;0.10;99.90;;;;;;5014751;28;20287;-62
2024/01/30 08:51:55;;;;;;;18.42;16.60;;;0.20;99.90;;;;;;5004103;28;20294;-62
2024/01/30 08:54:22;;;;;;;23.35;18.10;;;0.30;99.90;;;;;;5011606;28;20653;-63
2024/01/30 08:56:52;;;;;;;22.10;18.73;;;0.40;99.90;;;;;;5008830;28;20295;-62
2024/01/30 08:59:19;;;;;;;24.83;18.88;;;0.40;99.90;;;;;;5011948;28;20224;-62
2024/01/30 09:01:46;;;;;;;23.45;19.05;;;0.50;99.90;;;;;;5013345;28;20265;-62
2024/01/30 09:04:13;;;;;;;19.95;16.55;;;0.60;99.90;;;;;;5014035;28;20208;-62
2024/01/30 09:06:40;;;;;;;24.05;16.85;;;0.70;99.90;;;;;;5012926;28;20650;-63
2024/01/30 09:09:07;;;;;;;17.75;14.63;;;0.80;99.90;;;;;;5012542;28;20702;-62
2024/01/30 09:11:36;;;;;;;22.23;18.70;;;0.90;99.90;;;;;;5006906;28;20315;-62
2024/01/30 09:14:04;;;;;;;17.70;15.90;;;1.00;99.90;;;;;;5010782;28;20262;-62
2024/01/30 09:16:31;;;;;;;17.63;14.70;;;1.10;99.90;;;;;;5013648;28;20290;-62
2024/01/30 09:18:58;;;;;;;16.90;15.05;;;1.20;99.90;;;;;;5013813;28;20236;-61
2024/01/30 09:21:25;;;;;;;18.55;14.65;;;1.30;99.90;;;;;;5008272;28;20228;-62
2024/01/30 09:23:53;;;;;;;16.90;15.23;;;1.30;99.90;;;;;;5011138;28;20287;-62
2024/01/30 09:26:19;;;;;;;17.38;15.65;;;1.40;99.90;;;;;;5013961;28;20216;-62
2024/01/30 09:28:46;;;;;;;15.10;13.55;;;1.50;99.90;;;;;;5014571;28;20303;-62
2024/01/30 09:31:14;;;;;;;13.13;11.90;;;1.60;99.90;;;;;;4996406;28;20264;-63
2024/01/30 09:33:44;;;;;;;15.20;13.77;;;1.70;99.90;;;;;;5011605;28;20291;-62
2024/01/30 09:36:10;;;;;;;12.75;11.52;;;1.70;99.90;;;;;;5014576;28;20222;-62
2024/01/30 09:38:37;;;;;;;13.63;12.27;;;1.80;99.90;;;;;;5013716;28;20741;-63
2024/01/30 09:41:10;;;;;;;13.00;11.73;;;1.90;99.90;;;;;;5013776;28;20233;-62
2024/01/30 09:43:39;;;;;;;14.05;12.63;;;2.00;99.90;;;;;;5013416;28;20207;-62
2024/01/30 09:46:08;;;;;;;13.88;12.70;;;2.10;99.90;;;;;;5000167;28;20231;-63
2024/01/30 09:48:37;;;;;;;12.73;11.73;;;2.20;99.90;;;;;;5014381;28;20275;-62
2024/01/30 09:51:05;;;;;;;14.55;13.05;;;2.30;99.90;;;;;;5013803;28;20744;-62
2024/01/30 09:53:32;;;;;;;15.15;13.63;;;2.40;99.90;;;;;;5014139;28;20291;-63
2024/01/30 09:55:59;;;;;;;14.90;13.30;;;2.40;99.90;;;;;;5012014;28;20311;-62
2024/01/30 09:58:26;;;;;;;14.32;12.90;;;2.50;99.90;;;;;;5009907;28;20291;-62
2024/01/30 10:00:53;;;;;;;13.43;12.18;;;2.60;99.90;;;;;;5001234;28;20315;-63
2024/01/30 10:03:20;;;;;;;15.00;12.77;;;2.70;99.90;;;;;;5013203;28;20207;-62
2024/01/30 10:05:52;;;;;;;13.60;12.30;;;2.80;99.90;;;;;;5007850;28;20658;-62
2024/01/30 10:08:20;;;;;;;13.80;12.70;;;2.90;99.90;;;;;;5010830;28;20218;-62
2024/01/30 10:10:47;;;;;;;12.75;11.45;;;3.00;99.90;;;;;;5012933;28;20243;-62
2024/01/30 10:13:14;;;;;;;15.27;13.52;;;3.10;99.90;;;;;;5011544;28;20258;-62
2024/01/30 10:15:42;;;;;;;12.75;11.45;;;3.20;99.90;;;;;;4997918;28;20208;-62
2024/01/30 10:18:10;;;;;;;14.35;13.05;;;3.30;99.90;;;;;;5012578;28;20472;-62
2024/01/30 10:20:36;;;;;;;12.82;11.63;;;3.40;99.90;;;;;;4998670;28;20228;-63
2024/01/30 10:23:05;;;;;;;15.75;13.30;;;3.50;99.90;;;;;;5013551;28;20287;-63
2024/01/30 10:25:32;;;;;;;14.55;13.10;;;3.60;99.90;;;;;;5003733;28;20295;-62
2024/01/30 10:28:00;;;;;;;14.30;13.00;;;3.70;99.90;;;;;;5007045;28;20238;-62
2024/01/30 10:30:28;;;;;;;14.50;13.10;;;3.80;99.90;;;;;;5007565;28;20238;-63
2024/01/30 10:32:55;;;;;;;15.65;14.20;;;3.90;99.90;;;;;;5012774;28;20241;-63
2024/01/30 10:35:22;;;;;;;16.27;14.77;;;4.00;99.90;;;;;;5012946;28;20210;-62
2024/01/30 10:37:49;;;;;;;16.90;15.15;;;4.00;99.90;;;;;;5012292;28;20294;-63
2024/01/30 10:40:18;;;;;;;14.90;13.40;;;4.10;99.90;;;;;;5003919;28;20764;-63
2024/01/30 10:42:46;;;;;;;17.00;15.18;;;4.20;99.90;;;;;;5012664;28;20294;-62
2024/01/30 10:45:15;;;;;;;16.92;15.13;;;4.30;99.90;;;;;;5012192;28;20204;-62
2024/01/30 10:47:49;;;;;;;17.33;15.63;;;4.40;99.90;;;;;;5006571;28;20279;-63
2024/01/30 10:50:16;;;;;;;16.60;14.73;;;4.40;99.90;;;;;;5011693;28;20219;-63
2024/01/30 10:52:44;;;;;;;17.30;15.63;;;4.50;99.90;;;;;;5003654;28;20740;-63
2024/01/30 10:55:11;;;;;;;16.33;14.63;;;4.60;99.90;;;;;;4998504;28;20212;-62
2024/01/30 10:57:39;;;;;;;17.38;15.55;;;4.70;99.90;;;;;;5011668;28;20294;-62
2024/01/30 11:00:10;;;;;;;17.00;15.45;;;4.80;99.90;;;;;;5004325;28;20258;-63
2024/01/30 11:02:39;;;;;;;16.85;15.38;;;4.90;99.90;;;;;;5003947;28;20211;-63
2024/01/30 11:05:06;;;;;;;17.67;16.10;;;5.00;99.90;;;;;;5007106;28;20563;-61
2024/01/30 11:07:34;;;;;;;18.27;16.58;;;5.10;99.90;;;;;;5002609;28;20310;-62
2024/01/30 11:10:03;;;;;;;16.58;15.02;;;5.30;99.90;;;;;;5005277;28;20239;-62
2024/01/30 11:12:33;;;;;;;18.63;16.70;;;5.40;99.90;;;;;;5010610;28;20640;-62
2024/01/30 11:15:05;;;;;;;17.27;15.70;;;5.50;99.90;;;;;;5010976;28;20294;-62
2024/01/30 11:17:43;;;;;;;18.13;16.40;;;5.60;99.90;;;;;;5003671;28;20213;-61
2024/01/30 11:20:12;;;;;;;16.02;14.63;;;5.60;99.90;;;;;;5001189;28;20231;-62
2024/01/30 11:22:42;;;;;;;16.25;14.63;;;5.70;99.90;;;;;;4997743;28;20273;-63
2024/01/30 11:25:13;;;;;;;16.50;14.93;;;5.70;99.90;;;;;;5011462;28;20230;-62
2024/01/30 11:27:40;;;;;;;17.45;15.85;;;5.80;99.90;;;;;;5011569;28;20230;-62
2024/01/30 11:30:10;;;;;;;16.33;14.82;;;5.90;99.90;;;;;;5010597;28;20224;-63
2024/01/30 11:32:36;;;;;;;18.42;16.42;;;5.90;99.90;;;;;;5004625;28;20746;-62
2024/01/30 11:35:06;;;;;;;19.75;17.42;;;5.90;99.90;;;;;;5011100;28;20239;-62
2024/01/30 11:37:33;;;;;;;18.17;16.05;;;5.90;99.90;;;;;;5003903;28;20211;-62
2024/01/30 11:40:00;;;;;;;18.77;16.95;;;6.00;99.90;;;;;;5011173;28;20676;-62
2024/01/30 11:42:28;;;;;;;18.95;17.25;;;6.00;99.90;;;;;;5011501;28;20211;-62
2024/01/30 11:44:55;;;;;;;17.92;15.70;;;6.10;99.90;;;;;;5011362;28;20257;-62
2024/01/30 11:47:23;;;;;;;19.33;17.60;;;6.20;99.90;;;;;;5011305;28;20228;-62
2024/01/30 11:49:50;;;;;;;18.70;17.00;;;6.30;99.90;;;;;;5010431;28;20318;-63
2024/01/30 11:52:17;;;;;;;20.48;18.50;;;6.40;99.90;;;;;;5010947;28;20298;-62
2024/01/30 11:54:44;;;;;;;18.75;16.95;;;6.50;99.90;;;;;;5002680;28;20203;-62
2024/01/30 11:57:11;;;;;;;20.17;18.38;;;6.60;99.90;;;;;;5003357;28;20204;-62
2024/01/30 11:59:38;;;;;;;22.23;20.02;;;6.70;99.90;;;;;;5010448;28;20327;-62
2024/01/30 12:02:05;;;;;;;23.67;21.48;;;6.80;99.90;;;;;;5003109;28;20204;-63
2024/01/30 12:04:33;;;;;;;20.58;18.60;;;7.00;99.90;;;;;;5010591;28;20290;-62
2024/01/30 12:07:00;;;;;;;20.42;18.73;;;7.00;99.90;;;;;;5010358;28;20666;-62
2024/01/30 12:09:27;;;;;;;19.80;18.00;;;7.20;99.90;;;;;;5013684;28;20211;-62
2024/01/30 12:11:54;;;;;;;22.02;19.70;;;7.30;99.90;;;;;;5036945;22;20239;-64
2024/01/30 12:14:25;;;;;;;23.42;21.10;;;7.40;99.90;;;;;;5013914;28;20214;-64
2024/01/30 12:16:51;;;;;;;19.77;18.00;;;7.40;99.90;;;;;;5014744;28;20298;-64
2024/01/30 12:19:25;;;;;;;20.73;19.00;;;7.40;99.90;;;;;;5011499;28;20991;-64
2024/01/30 12:21:59;;;;;;;21.40;19.30;;;7.50;99.90;;;;;;4998963;28;20311;-64
2024/01/30 12:24:26;;;;;;;20.92;18.73;;;7.50;99.90;;;;;;4997821;28;20215;-64
2024/01/30 12:26:53;;;;;;;22.70;20.45;;;7.50;99.90;;;;;;5007106;28;20231;-64
2024/01/30 12:29:22;;;;;;;20.17;18.40;;;7.50;99.90;;;;;;5005193;28;20219;-64
2024/01/30 12:31:49;;;;;;;20.73;18.90;;;7.60;99.90;;;;;;5000280;28;20235;-63
2024/01/30 12:34:16;;;;;;;21.77;19.55;;;7.80;99.90;;;;;;5008084;28;20311;-64
2024/01/30 12:36:44;;;;;;;20.63;18.60;;;7.90;99.90;;;;;;5000239;28;20249;-64